This is the latest recevied weather packets stored in our database for station/object K6CRS-15. If no packets are shown the sender has not sent any weather packets the latest 10 day(s).
| Time | Temp. | Humidity | Pressure | Rain* | Wind** | Luminosity | Snow |
|---|---|---|---|---|---|---|---|
| 1777889767 | 11.67° C | 88% | 1013.7 hPa | 0 mm | - | - | - |
| 1777886147 | 11.67° C | 86% | 1014.1 hPa | 0 mm | - | - | - |
| 1777882561 | 11.67° C | 86% | 1015 hPa | 0 mm | - | - | - |
| 1777878945 | 11.67° C | 86% | 1015 hPa | 0 mm | - | - | - |
| 1777866345 | 12.78° C | 83% | 1013.9 hPa | 0 mm | - | - | - |
| 1777861845 | 13.33° C | 81% | 1013.2 hPa | 0 mm | - | - | - |
| 1777859151 | 13.89° C | 73% | 1013 hPa | 0 mm | - | - | - |
| 1777851950 | 16.11° C | 68% | 1012.3 hPa | 0 mm | - | - | - |
| 1777849251 | 16.67° C | 68% | 1012.5 hPa | 0 mm | - | - | - |
| 1777843852 | 14.44° C | 76% | 1013.5 hPa | 0 mm | - | - | - |
| 1777842944 | 14.44° C | 77% | 1013.5 hPa | 0 mm | - | - | - |
| 1777835748 | 14.44° C | 82% | 1013.8 hPa | 0 mm | - | - | - |
| 1777833045 | 13.33° C | 87% | 1014.1 hPa | 0 mm | - | - | - |
| 1777828547 | 12.22° C | 92% | 1014.4 hPa | 0 mm | - | - | - |
| 1777815944 | 12.78° C | 89% | 1012.3 hPa | 0 mm | - | - | - |
| 1777811444 | 12.78° C | 92% | 1011.9 hPa | 0 mm | - | - | - |
| 1777808739 | 12.78° C | 93% | 1012.1 hPa | 0 mm | - | - | - |
| 1777804240 | 12.78° C | 95% | 1012.1 hPa | 0 mm | - | - | - |
| 1777803349 | 12.78° C | 95% | 1012.1 hPa | 0 mm | - | - | - |
| 1777799750 | 12.78° C | 94% | 1012.5 hPa | 0 mm | - | - | - |
| 1777792550 | 12.78° C | 95% | 1012.3 hPa | 0 mm | - | - | - |
| 1777788068 | 12.78° C | 93% | 1012.4 hPa | 0 mm | - | - | - |
| 1777774553 | 18.89° C | 71% | 1010.3 hPa | 0 mm | - | - | - |
| 1777773650 | 20° C | 69% | 1010.5 hPa | 0 mm | - | - | - |
| 1777772745 | 20.56° C | 67% | 1010.4 hPa | 0 mm | - | - | - |
* Rain latest hour (hover to see other rain measurements)
** Current wind speed in m/s (hover to see current wind gust speed)